sensor_id;sensor_type;location;lat;lon;timestamp;P1;durP1;ratioP1;P2;durP2;ratioP2
68951;SDS011;56000;51.146;17.112;2024-02-15T00:00:22;14.30;;;7.50;;
68951;SDS011;56000;51.146;17.112;2024-02-15T00:03:17;14.00;;;7.10;;
68951;SDS011;56000;51.146;17.112;2024-02-15T00:05:51;13.80;;;7.30;;
68951;SDS011;56000;51.146;17.112;2024-02-15T00:08:24;16.40;;;8.70;;
68951;SDS011;56000;51.146;17.112;2024-02-15T00:10:57;16.60;;;9.10;;
68951;SDS011;56000;51.146;17.112;2024-02-15T00:13:30;16.50;;;9.40;;
68951;SDS011;56000;51.146;17.112;2024-02-15T00:16:03;21.90;;;11.20;;
68951;SDS011;56000;51.146;17.112;2024-02-15T00:18:37;21.10;;;10.90;;
68951;SDS011;56000;51.146;17.112;2024-02-15T00:21:10;26.00;;;12.00;;
68951;SDS011;56000;51.146;17.112;2024-02-15T00:23:44;24.90;;;11.90;;
68951;SDS011;56000;51.146;17.112;2024-02-15T00:26:17;25.00;;;11.50;;
68951;SDS011;56000;51.146;17.112;2024-02-15T00:28:50;23.50;;;12.40;;
68951;SDS011;56000;51.146;17.112;2024-02-15T00:31:23;28.50;;;12.90;;
68951;SDS011;56000;51.146;17.112;2024-02-15T00:33:56;24.80;;;12.60;;
68951;SDS011;56000;51.146;17.112;2024-02-15T00:36:30;30.40;;;12.90;;
68951;SDS011;56000;51.146;17.112;2024-02-15T00:39:03;25.20;;;12.80;;
68951;SDS011;56000;51.146;17.112;2024-02-15T00:41:38;26.40;;;13.00;;
68951;SDS011;56000;51.146;17.112;2024-02-15T00:44:12;26.40;;;13.10;;
68951;SDS011;56000;51.146;17.112;2024-02-15T00:46:45;25.10;;;13.10;;
68951;SDS011;56000;51.146;17.112;2024-02-15T00:49:18;25.40;;;11.90;;
68951;SDS011;56000;51.146;17.112;2024-02-15T00:51:53;27.40;;;13.10;;
68951;SDS011;56000;51.146;17.112;2024-02-15T00:54:25;23.90;;;11.80;;
68951;SDS011;56000;51.146;17.112;2024-02-15T00:56:58;26.40;;;12.30;;
68951;SDS011;56000;51.146;17.112;2024-02-15T00:59:31;26.10;;;12.00;;
68951;SDS011;56000;51.146;17.112;2024-02-15T01:02:05;22.20;;;11.60;;
68951;SDS011;56000;51.146;17.112;2024-02-15T01:04:39;22.60;;;10.80;;
68951;SDS011;56000;51.146;17.112;2024-02-15T01:07:12;25.60;;;11.70;;
68951;SDS011;56000;51.146;17.112;2024-02-15T01:09:45;22.40;;;11.40;;
68951;SDS011;56000;51.146;17.112;2024-02-15T01:12:18;22.50;;;11.20;;
68951;SDS011;56000;51.146;17.112;2024-02-15T01:14:51;20.20;;;10.80;;
68951;SDS011;56000;51.146;17.112;2024-02-15T01:17:25;23.60;;;10.40;;
68951;SDS011;56000;51.146;17.112;2024-02-15T01:19:58;25.40;;;11.90;;
68951;SDS011;56000;51.146;17.112;2024-02-15T01:22:31;20.40;;;10.80;;
68951;SDS011;56000;51.146;17.112;2024-02-15T01:25:05;20.70;;;9.60;;
68951;SDS011;56000;51.146;17.112;2024-02-15T01:27:41;24.00;;;11.80;;
68951;SDS011;56000;51.146;17.112;2024-02-15T01:30:14;25.30;;;11.80;;
68951;SDS011;56000;51.146;17.112;2024-02-15T01:32:47;19.60;;;10.80;;
68951;SDS011;56000;51.146;17.112;2024-02-15T01:35:20;21.50;;;10.60;;
68951;SDS011;56000;51.146;17.112;2024-02-15T01:37:55;24.20;;;12.20;;
68951;SDS011;56000;51.146;17.112;2024-02-15T01:40:27;20.70;;;10.40;;
68951;SDS011;56000;51.146;17.112;2024-02-15T01:43:00;21.20;;;11.70;;
68951;SDS011;56000;51.146;17.112;2024-02-15T01:45:34;23.40;;;11.50;;
68951;SDS011;56000;51.146;17.112;2024-02-15T01:48:08;21.60;;;10.60;;
68951;SDS011;56000;51.146;17.112;2024-02-15T01:50:41;22.50;;;11.10;;
68951;SDS011;56000;51.146;17.112;2024-02-15T01:53:14;22.90;;;11.50;;
68951;SDS011;56000;51.146;17.112;2024-02-15T01:55:47;19.40;;;10.20;;
68951;SDS011;56000;51.146;17.112;2024-02-15T01:58:21;20.60;;;10.90;;
68951;SDS011;56000;51.146;17.112;2024-02-15T02:00:57;21.40;;;9.50;;
68951;SDS011;56000;51.146;17.112;2024-02-15T02:03:31;19.20;;;10.40;;
68951;SDS011;56000;51.146;17.112;2024-02-15T02:06:04;18.10;;;9.30;;
68951;SDS011;56000;51.146;17.112;2024-02-15T02:08:38;23.10;;;10.50;;
68951;SDS011;56000;51.146;17.112;2024-02-15T02:11:11;18.00;;;10.30;;
68951;SDS011;56000;51.146;17.112;2024-02-15T02:13:44;22.10;;;9.90;;
68951;SDS011;56000;51.146;17.112;2024-02-15T02:16:27;17.60;;;9.40;;
68951;SDS011;56000;51.146;17.112;2024-02-15T02:19:02;20.20;;;9.40;;
68951;SDS011;56000;51.146;17.112;2024-02-15T02:21:39;17.80;;;9.40;;
68951;SDS011;56000;51.146;17.112;2024-02-15T02:24:14;18.00;;;9.00;;
68951;SDS011;56000;51.146;17.112;2024-02-15T02:26:52;17.00;;;9.10;;
68951;SDS011;56000;51.146;17.112;2024-02-15T02:29:25;18.50;;;9.60;;
68951;SDS011;56000;51.146;17.112;2024-02-15T02:32:00;17.60;;;9.00;;
68951;SDS011;56000;51.146;17.112;2024-02-15T02:34:33;19.00;;;8.40;;
68951;SDS011;56000;51.146;17.112;2024-02-15T02:37:06;17.30;;;9.00;;
68951;SDS011;56000;51.146;17.112;2024-02-15T02:39:38;18.40;;;8.60;;
68951;SDS011;56000;51.146;17.112;2024-02-15T02:42:13;20.20;;;9.60;;
68951;SDS011;56000;51.146;17.112;2024-02-15T02:44:46;18.60;;;9.20;;
68951;SDS011;56000;51.146;17.112;2024-02-15T02:47:18;16.20;;;9.40;;
68951;SDS011;56000;51.146;17.112;2024-02-15T02:49:51;15.50;;;8.30;;
68951;SDS011;56000;51.146;17.112;2024-02-15T02:52:24;15.20;;;8.80;;
68951;SDS011;56000;51.146;17.112;2024-02-15T02:54:57;14.80;;;8.50;;
68951;SDS011;56000;51.146;17.112;2024-02-15T02:57:31;16.20;;;8.40;;
68951;SDS011;56000;51.146;17.112;2024-02-15T03:00:05;15.30;;;8.30;;
68951;SDS011;56000;51.146;17.112;2024-02-15T03:02:43;16.60;;;8.30;;
68951;SDS011;56000;51.146;17.112;2024-02-15T03:05:17;14.40;;;8.50;;
68951;SDS011;56000;51.146;17.112;2024-02-15T03:07:51;16.90;;;8.70;;
68951;SDS011;56000;51.146;17.112;2024-02-15T03:10:24;13.80;;;8.00;;
68951;SDS011;56000;51.146;17.112;2024-02-15T03:12:57;18.20;;;8.40;;
68951;SDS011;56000;51.146;17.112;2024-02-15T03:15:30;14.60;;;7.10;;
68951;SDS011;56000;51.146;17.112;2024-02-15T03:18:04;16.70;;;8.10;;
68951;SDS011;56000;51.146;17.112;2024-02-15T03:20:39;16.00;;;8.00;;
68951;SDS011;56000;51.146;17.112;2024-02-15T03:23:13;17.20;;;8.20;;
68951;SDS011;56000;51.146;17.112;2024-02-15T03:25:46;17.20;;;7.90;;
68951;SDS011;56000;51.146;17.112;2024-02-15T03:28:19;12.70;;;7.70;;
68951;SDS011;56000;51.146;17.112;2024-02-15T03:30:52;17.60;;;8.30;;
68951;SDS011;56000;51.146;17.112;2024-02-15T03:33:26;14.70;;;8.10;;
68951;SDS011;56000;51.146;17.112;2024-02-15T03:36:04;13.50;;;7.00;;
68951;SDS011;56000;51.146;17.112;2024-02-15T03:38:40;18.30;;;8.10;;
68951;SDS011;56000;51.146;17.112;2024-02-15T03:41:14;15.10;;;7.60;;
68951;SDS011;56000;51.146;17.112;2024-02-15T03:43:47;15.50;;;8.10;;
68951;SDS011;56000;51.146;17.112;2024-02-15T03:46:20;17.70;;;8.30;;
68951;SDS011;56000;51.146;17.112;2024-02-15T03:48:54;18.30;;;9.20;;
68951;SDS011;56000;51.146;17.112;2024-02-15T03:51:27;17.20;;;9.00;;
68951;SDS011;56000;51.146;17.112;2024-02-15T03:54:02;13.50;;;7.90;;
68951;SDS011;56000;51.146;17.112;2024-02-15T03:56:35;15.90;;;8.90;;
68951;SDS011;56000;51.146;17.112;2024-02-15T03:59:08;14.20;;;8.30;;
68951;SDS011;56000;51.146;17.112;2024-02-15T04:01:43;12.30;;;7.60;;
68951;SDS011;56000;51.146;17.112;2024-02-15T04:04:16;11.90;;;7.20;;
68951;SDS011;56000;51.146;17.112;2024-02-15T04:06:51;12.70;;;8.00;;
68951;SDS011;56000;51.146;17.112;2024-02-15T04:09:24;12.90;;;6.90;;
68951;SDS011;56000;51.146;17.112;2024-02-15T04:11:58;16.70;;;7.90;;
68951;SDS011;56000;51.146;17.112;2024-02-15T04:14:31;13.30;;;7.40;;
68951;SDS011;56000;51.146;17.112;2024-02-15T04:17:05;12.80;;;7.80;;
68951;SDS011;56000;51.146;17.112;2024-02-15T04:19:38;14.00;;;8.30;;
68951;SDS011;56000;51.146;17.112;2024-02-15T04:22:11;16.00;;;8.70;;
68951;SDS011;56000;51.146;17.112;2024-02-15T04:24:46;15.70;;;8.70;;
68951;SDS011;56000;51.146;17.112;2024-02-15T04:27:19;12.00;;;8.10;;
68951;SDS011;56000;51.146;17.112;2024-02-15T04:29:52;14.40;;;8.00;;
68951;SDS011;56000;51.146;17.112;2024-02-15T04:32:25;12.50;;;7.50;;
68951;SDS011;56000;51.146;17.112;2024-02-15T04:34:58;14.40;;;7.90;;
68951;SDS011;56000;51.146;17.112;2024-02-15T04:37:33;14.00;;;7.70;;
68951;SDS011;56000;51.146;17.112;2024-02-15T04:40:08;12.40;;;7.60;;
68951;SDS011;56000;51.146;17.112;2024-02-15T04:42:44;13.10;;;8.20;;
68951;SDS011;56000;51.146;17.112;2024-02-15T04:45:17;13.80;;;8.00;;
68951;SDS011;56000;51.146;17.112;2024-02-15T04:47:52;13.20;;;7.90;;
68951;SDS011;56000;51.146;17.112;2024-02-15T04:50:27;12.30;;;7.90;;
68951;SDS011;56000;51.146;17.112;2024-02-15T04:53:00;12.10;;;7.80;;
68951;SDS011;56000;51.146;17.112;2024-02-15T04:55:33;13.00;;;7.70;;
68951;SDS011;56000;51.146;17.112;2024-02-15T04:58:06;12.70;;;7.40;;
68951;SDS011;56000;51.146;17.112;2024-02-15T05:00:40;11.40;;;7.00;;
68951;SDS011;56000;51.146;17.112;2024-02-15T05:03:13;13.60;;;7.50;;
68951;SDS011;56000;51.146;17.112;2024-02-15T05:05:47;13.70;;;7.80;;
68951;SDS011;56000;51.146;17.112;2024-02-15T05:08:20;16.50;;;8.60;;
68951;SDS011;56000;51.146;17.112;2024-02-15T05:10:53;16.50;;;8.80;;
68951;SDS011;56000;51.146;17.112;2024-02-15T05:13:27;17.90;;;8.70;;
68951;SDS011;56000;51.146;17.112;2024-02-15T05:16:00;16.30;;;8.60;;
68951;SDS011;56000;51.146;17.112;2024-02-15T05:18:35;13.30;;;7.40;;
68951;SDS011;56000;51.146;17.112;2024-02-15T05:21:10;15.40;;;8.30;;
68951;SDS011;56000;51.146;17.112;2024-02-15T05:23:43;13.70;;;7.90;;
68951;SDS011;56000;51.146;17.112;2024-02-15T05:26:16;12.50;;;8.10;;
68951;SDS011;56000;51.146;17.112;2024-02-15T05:28:53;14.60;;;7.60;;
68951;SDS011;56000;51.146;17.112;2024-02-15T05:31:25;15.00;;;8.10;;
68951;SDS011;56000;51.146;17.112;2024-02-15T05:33:58;15.60;;;8.90;;
68951;SDS011;56000;51.146;17.112;2024-02-15T05:36:31;15.90;;;8.70;;
68951;SDS011;56000;51.146;17.112;2024-02-15T05:39:05;17.40;;;8.70;;
68951;SDS011;56000;51.146;17.112;2024-02-15T05:41:41;15.70;;;8.10;;
68951;SDS011;56000;51.146;17.112;2024-02-15T05:44:14;15.30;;;8.90;;
68951;SDS011;56000;51.146;17.112;2024-02-15T05:46:50;18.60;;;8.90;;
68951;SDS011;56000;51.146;17.112;2024-02-15T05:49:23;17.20;;;8.40;;
68951;SDS011;56000;51.146;17.112;2024-02-15T05:51:56;13.40;;;8.00;;
68951;SDS011;56000;51.146;17.112;2024-02-15T05:54:29;16.80;;;8.60;;
68951;SDS011;56000;51.146;17.112;2024-02-15T05:57:01;18.00;;;9.40;;
68951;SDS011;56000;51.146;17.112;2024-02-15T05:59:35;16.60;;;8.80;;
68951;SDS011;56000;51.146;17.112;2024-02-15T06:02:10;13.00;;;7.90;;
68951;SDS011;56000;51.146;17.112;2024-02-15T06:04:43;12.70;;;8.50;;
68951;SDS011;56000;51.146;17.112;2024-02-15T06:07:16;14.60;;;9.00;;
68951;SDS011;56000;51.146;17.112;2024-02-15T06:09:49;21.70;;;10.30;;
68951;SDS011;56000;51.146;17.112;2024-02-15T06:12:22;14.70;;;10.60;;
68951;SDS011;56000;51.146;17.112;2024-02-15T06:14:55;16.40;;;10.60;;
68951;SDS011;56000;51.146;17.112;2024-02-15T06:17:28;18.30;;;11.70;;
68951;SDS011;56000;51.146;17.112;2024-02-15T06:20:01;17.70;;;11.70;;
68951;SDS011;56000;51.146;17.112;2024-02-15T06:22:35;17.30;;;12.00;;
68951;SDS011;56000;51.146;17.112;2024-02-15T06:25:10;19.20;;;11.40;;
68951;SDS011;56000;51.146;17.112;2024-02-15T06:27:43;17.80;;;10.80;;
68951;SDS011;56000;51.146;17.112;2024-02-15T06:30:16;18.10;;;11.50;;
68951;SDS011;56000;51.146;17.112;2024-02-15T06:35:55;17.40;;;10.10;;
